Terminal Aerodrome Forecast
Issued by NWS Newport/Morehead City, NC

Home | Current Version | Previous Version | Text Only | Print | Product List | Glossary On
Versions: 1 2 3 4 5 6 7 8 9 10 11 12 13
000
FTUS42 KMHX 261726
TAFEWN
TAF
KEWN 261726Z 2618/2718 01009KT P6SM OVC015
     FM270200 VRB03KT P6SM BKN050
     FM270800 33003KT P6SM SCT080
     FM271300 34007KT P6SM SCT050=

USA.gov is the U.S. government's official web portal to all federal, state and local government web resources and services.